sensor_id;sensor_type;location;lat;lon;timestamp;P1;durP1;ratioP1;P2;durP2;ratioP2
10281;SDS011;5186;59.472;18.048;2023-12-29T00:02:10;3.10;;;1.60;;
10281;SDS011;5186;59.472;18.048;2023-12-29T00:04:35;1.73;;;1.30;;
10281;SDS011;5186;59.472;18.048;2023-12-29T00:07:01;1.60;;;1.43;;
10281;SDS011;5186;59.472;18.048;2023-12-29T00:09:27;1.50;;;1.33;;
10281;SDS011;5186;59.472;18.048;2023-12-29T00:11:53;2.63;;;1.60;;
10281;SDS011;5186;59.472;18.048;2023-12-29T00:14:21;1.63;;;1.43;;
10281;SDS011;5186;59.472;18.048;2023-12-29T00:16:47;1.90;;;1.40;;
10281;SDS011;5186;59.472;18.048;2023-12-29T00:19:13;2.27;;;1.40;;
10281;SDS011;5186;59.472;18.048;2023-12-29T00:21:39;2.27;;;1.60;;
10281;SDS011;5186;59.472;18.048;2023-12-29T00:24:05;1.60;;;1.33;;
10281;SDS011;5186;59.472;18.048;2023-12-29T00:26:31;1.40;;;1.30;;
10281;SDS011;5186;59.472;18.048;2023-12-29T00:28:56;1.67;;;1.57;;
10281;SDS011;5186;59.472;18.048;2023-12-29T00:31:22;4.27;;;1.80;;
10281;SDS011;5186;59.472;18.048;2023-12-29T00:33:48;2.10;;;1.60;;
10281;SDS011;5186;59.472;18.048;2023-12-29T00:36:17;2.67;;;1.77;;
10281;SDS011;5186;59.472;18.048;2023-12-29T00:38:43;2.57;;;1.80;;
10281;SDS011;5186;59.472;18.048;2023-12-29T00:41:09;3.60;;;1.80;;
10281;SDS011;5186;59.472;18.048;2023-12-29T00:43:35;2.70;;;1.70;;
10281;SDS011;5186;59.472;18.048;2023-12-29T00:46:01;1.50;;;1.40;;
10281;SDS011;5186;59.472;18.048;2023-12-29T00:48:27;1.43;;;1.30;;
10281;SDS011;5186;59.472;18.048;2023-12-29T00:50:52;2.67;;;1.50;;
10281;SDS011;5186;59.472;18.048;2023-12-29T00:53:18;3.80;;;1.50;;
10281;SDS011;5186;59.472;18.048;2023-12-29T00:55:43;2.07;;;1.63;;
10281;SDS011;5186;59.472;18.048;2023-12-29T00:58:09;2.00;;;1.60;;
10281;SDS011;5186;59.472;18.048;2023-12-29T01:00:35;1.90;;;1.33;;
10281;SDS011;5186;59.472;18.048;2023-12-29T01:03:00;2.50;;;1.37;;
10281;SDS011;5186;59.472;18.048;2023-12-29T01:05:26;1.23;;;1.10;;
10281;SDS011;5186;59.472;18.048;2023-12-29T01:07:52;1.20;;;1.10;;
10281;SDS011;5186;59.472;18.048;2023-12-29T01:10:18;3.07;;;1.10;;
10281;SDS011;5186;59.472;18.048;2023-12-29T01:12:43;1.47;;;0.83;;
10281;SDS011;5186;59.472;18.048;2023-12-29T01:15:09;1.63;;;0.90;;
10281;SDS011;5186;59.472;18.048;2023-12-29T01:17:35;2.77;;;0.97;;
10281;SDS011;5186;59.472;18.048;2023-12-29T01:20:00;1.20;;;1.00;;
10281;SDS011;5186;59.472;18.048;2023-12-29T01:22:28;1.00;;;0.77;;
10281;SDS011;5186;59.472;18.048;2023-12-29T01:24:53;0.93;;;0.80;;
10281;SDS011;5186;59.472;18.048;2023-12-29T01:27:19;0.87;;;0.80;;
10281;SDS011;5186;59.472;18.048;2023-12-29T01:29:45;1.07;;;0.90;;
10281;SDS011;5186;59.472;18.048;2023-12-29T01:32:10;0.90;;;0.70;;
10281;SDS011;5186;59.472;18.048;2023-12-29T01:34:36;1.10;;;0.80;;
10281;SDS011;5186;59.472;18.048;2023-12-29T01:37:04;0.90;;;0.80;;
10281;SDS011;5186;59.472;18.048;2023-12-29T01:39:30;1.57;;;0.70;;
10281;SDS011;5186;59.472;18.048;2023-12-29T01:41:56;1.03;;;0.70;;
10281;SDS011;5186;59.472;18.048;2023-12-29T01:44:22;1.27;;;0.97;;
10281;SDS011;5186;59.472;18.048;2023-12-29T01:46:51;1.27;;;0.70;;
10281;SDS011;5186;59.472;18.048;2023-12-29T01:49:20;1.53;;;0.70;;
10281;SDS011;5186;59.472;18.048;2023-12-29T01:51:48;1.43;;;1.00;;
10281;SDS011;5186;59.472;18.048;2023-12-29T01:54:16;0.93;;;0.77;;
10281;SDS011;5186;59.472;18.048;2023-12-29T01:56:43;1.00;;;0.90;;
10281;SDS011;5186;59.472;18.048;2023-12-29T01:59:09;1.07;;;0.97;;
10281;SDS011;5186;59.472;18.048;2023-12-29T02:01:35;1.00;;;0.80;;
10281;SDS011;5186;59.472;18.048;2023-12-29T02:04:04;1.77;;;1.20;;
10281;SDS011;5186;59.472;18.048;2023-12-29T02:06:30;1.17;;;0.93;;
10281;SDS011;5186;59.472;18.048;2023-12-29T02:08:58;2.30;;;1.20;;
10281;SDS011;5186;59.472;18.048;2023-12-29T02:11:24;1.97;;;1.20;;
10281;SDS011;5186;59.472;18.048;2023-12-29T02:13:50;2.23;;;1.40;;
10281;SDS011;5186;59.472;18.048;2023-12-29T02:16:18;1.30;;;1.13;;
10281;SDS011;5186;59.472;18.048;2023-12-29T02:18:51;1.30;;;1.10;;
10281;SDS011;5186;59.472;18.048;2023-12-29T02:21:22;2.47;;;1.40;;
10281;SDS011;5186;59.472;18.048;2023-12-29T02:23:51;3.07;;;1.40;;
10281;SDS011;5186;59.472;18.048;2023-12-29T02:26:16;1.70;;;1.40;;
10281;SDS011;5186;59.472;18.048;2023-12-29T02:28:47;1.63;;;1.17;;
10281;SDS011;5186;59.472;18.048;2023-12-29T02:31:19;1.97;;;1.20;;
10281;SDS011;5186;59.472;18.048;2023-12-29T02:33:49;1.47;;;1.30;;
10281;SDS011;5186;59.472;18.048;2023-12-29T02:36:16;1.77;;;1.43;;
10281;SDS011;5186;59.472;18.048;2023-12-29T02:38:43;2.07;;;1.40;;
10281;SDS011;5186;59.472;18.048;2023-12-29T02:41:09;2.33;;;1.30;;
10281;SDS011;5186;59.472;18.048;2023-12-29T02:43:38;3.27;;;1.60;;
10281;SDS011;5186;59.472;18.048;2023-12-29T02:46:03;2.57;;;1.40;;
10281;SDS011;5186;59.472;18.048;2023-12-29T02:48:29;2.70;;;1.53;;
10281;SDS011;5186;59.472;18.048;2023-12-29T02:50:55;3.07;;;1.80;;
10281;SDS011;5186;59.472;18.048;2023-12-29T02:53:20;3.60;;;1.87;;
10281;SDS011;5186;59.472;18.048;2023-12-29T02:55:46;2.73;;;1.63;;
10281;SDS011;5186;59.472;18.048;2023-12-29T02:58:12;5.47;;;1.90;;
10281;SDS011;5186;59.472;18.048;2023-12-29T03:00:37;2.40;;;1.73;;
10281;SDS011;5186;59.472;18.048;2023-12-29T03:03:03;2.17;;;1.83;;
10281;SDS011;5186;59.472;18.048;2023-12-29T03:05:28;3.23;;;2.20;;
10281;SDS011;5186;59.472;18.048;2023-12-29T03:07:54;3.70;;;1.90;;
10281;SDS011;5186;59.472;18.048;2023-12-29T03:10:19;4.43;;;2.17;;
10281;SDS011;5186;59.472;18.048;2023-12-29T03:12:45;3.70;;;2.10;;
10281;SDS011;5186;59.472;18.048;2023-12-29T03:15:11;3.33;;;2.07;;
10281;SDS011;5186;59.472;18.048;2023-12-29T03:17:36;3.20;;;2.13;;
10281;SDS011;5186;59.472;18.048;2023-12-29T03:20:02;4.30;;;2.60;;
10281;SDS011;5186;59.472;18.048;2023-12-29T03:22:29;4.87;;;3.03;;
10281;SDS011;5186;59.472;18.048;2023-12-29T03:24:55;3.57;;;2.20;;
10281;SDS011;5186;59.472;18.048;2023-12-29T03:27:20;3.43;;;2.40;;
10281;SDS011;5186;59.472;18.048;2023-12-29T03:29:46;5.67;;;2.90;;
10281;SDS011;5186;59.472;18.048;2023-12-29T03:32:11;3.90;;;2.40;;
10281;SDS011;5186;59.472;18.048;2023-12-29T03:34:37;3.70;;;2.40;;
10281;SDS011;5186;59.472;18.048;2023-12-29T03:37:03;5.07;;;2.77;;
10281;SDS011;5186;59.472;18.048;2023-12-29T03:39:28;5.93;;;2.40;;
10281;SDS011;5186;59.472;18.048;2023-12-29T03:41:54;6.87;;;2.90;;
10281;SDS011;5186;59.472;18.048;2023-12-29T03:44:20;6.30;;;3.00;;
10281;SDS011;5186;59.472;18.048;2023-12-29T03:46:46;5.30;;;3.50;;
10281;SDS011;5186;59.472;18.048;2023-12-29T03:49:11;7.53;;;3.47;;
10281;SDS011;5186;59.472;18.048;2023-12-29T03:51:37;6.00;;;3.17;;
10281;SDS011;5186;59.472;18.048;2023-12-29T03:54:02;5.47;;;3.03;;
10281;SDS011;5186;59.472;18.048;2023-12-29T03:56:28;5.30;;;3.07;;
10281;SDS011;5186;59.472;18.048;2023-12-29T03:58:54;4.13;;;2.73;;
10281;SDS011;5186;59.472;18.048;2023-12-29T04:01:20;4.97;;;3.20;;
10281;SDS011;5186;59.472;18.048;2023-12-29T04:03:45;5.63;;;3.10;;
10281;SDS011;5186;59.472;18.048;2023-12-29T04:06:11;3.20;;;2.10;;
10281;SDS011;5186;59.472;18.048;2023-12-29T04:08:37;4.23;;;2.50;;
10281;SDS011;5186;59.472;18.048;2023-12-29T04:11:03;4.27;;;2.40;;
10281;SDS011;5186;59.472;18.048;2023-12-29T04:13:29;2.57;;;1.90;;
10281;SDS011;5186;59.472;18.048;2023-12-29T04:15:55;4.23;;;2.20;;
10281;SDS011;5186;59.472;18.048;2023-12-29T04:18:22;3.33;;;2.00;;
10281;SDS011;5186;59.472;18.048;2023-12-29T04:20:48;2.97;;;2.00;;
10281;SDS011;5186;59.472;18.048;2023-12-29T04:23:14;2.93;;;1.93;;
10281;SDS011;5186;59.472;18.048;2023-12-29T04:25:39;3.60;;;1.87;;
10281;SDS011;5186;59.472;18.048;2023-12-29T04:28:06;2.00;;;1.50;;
10281;SDS011;5186;59.472;18.048;2023-12-29T04:30:32;2.17;;;1.57;;
10281;SDS011;5186;59.472;18.048;2023-12-29T04:32:58;3.73;;;1.53;;
10281;SDS011;5186;59.472;18.048;2023-12-29T04:35:24;2.70;;;1.40;;
10281;SDS011;5186;59.472;18.048;2023-12-29T04:37:49;1.90;;;1.50;;
10281;SDS011;5186;59.472;18.048;2023-12-29T04:40:16;1.30;;;1.20;;
10281;SDS011;5186;59.472;18.048;2023-12-29T04:42:42;2.47;;;1.10;;
10281;SDS011;5186;59.472;18.048;2023-12-29T04:45:08;2.10;;;1.53;;
10281;SDS011;5186;59.472;18.048;2023-12-29T04:47:35;1.30;;;1.10;;
10281;SDS011;5186;59.472;18.048;2023-12-29T04:50:01;2.60;;;1.00;;
10281;SDS011;5186;59.472;18.048;2023-12-29T04:52:27;1.77;;;1.10;;
10281;SDS011;5186;59.472;18.048;2023-12-29T04:54:52;1.87;;;1.00;;
10281;SDS011;5186;59.472;18.048;2023-12-29T04:57:18;1.10;;;0.83;;
10281;SDS011;5186;59.472;18.048;2023-12-29T04:59:43;1.83;;;0.83;;
10281;SDS011;5186;59.472;18.048;2023-12-29T05:02:09;1.50;;;0.80;;
10281;SDS011;5186;59.472;18.048;2023-12-29T05:04:35;1.27;;;0.90;;
10281;SDS011;5186;59.472;18.048;2023-12-29T05:07:00;0.70;;;0.70;;
10281;SDS011;5186;59.472;18.048;2023-12-29T05:09:26;1.03;;;0.70;;
10281;SDS011;5186;59.472;18.048;2023-12-29T05:11:51;0.83;;;0.70;;
10281;SDS011;5186;59.472;18.048;2023-12-29T05:14:17;0.80;;;0.70;;
10281;SDS011;5186;59.472;18.048;2023-12-29T05:16:43;1.20;;;0.80;;
10281;SDS011;5186;59.472;18.048;2023-12-29T05:19:09;0.80;;;0.50;;
10281;SDS011;5186;59.472;18.048;2023-12-29T05:21:34;0.93;;;0.70;;
10281;SDS011;5186;59.472;18.048;2023-12-29T05:24:00;1.50;;;0.40;;
10281;SDS011;5186;59.472;18.048;2023-12-29T05:26:25;0.60;;;0.60;;
10281;SDS011;5186;59.472;18.048;2023-12-29T05:28:51;0.40;;;0.40;;
10281;SDS011;5186;59.472;18.048;2023-12-29T05:31:17;2.70;;;0.80;;
10281;SDS011;5186;59.472;18.048;2023-12-29T05:33:43;0.90;;;0.70;;
10281;SDS011;5186;59.472;18.048;2023-12-29T05:36:09;0.40;;;0.40;;
10281;SDS011;5186;59.472;18.048;2023-12-29T05:38:36;0.50;;;0.50;;
10281;SDS011;5186;59.472;18.048;2023-12-29T05:41:02;1.03;;;0.57;;
10281;SDS011;5186;59.472;18.048;2023-12-29T05:43:30;0.40;;;0.40;;
10281;SDS011;5186;59.472;18.048;2023-12-29T05:45:56;0.40;;;0.40;;
10281;SDS011;5186;59.472;18.048;2023-12-29T05:48:22;0.57;;;0.37;;
10281;SDS011;5186;59.472;18.048;2023-12-29T05:50:49;0.50;;;0.50;;
10281;SDS011;5186;59.472;18.048;2023-12-29T05:53:15;0.67;;;0.40;;
10281;SDS011;5186;59.472;18.048;2023-12-29T05:55:40;0.40;;;0.40;;
10281;SDS011;5186;59.472;18.048;2023-12-29T05:58:06;1.13;;;0.40;;
10281;SDS011;5186;59.472;18.048;2023-12-29T06:00:32;0.70;;;0.40;;
10281;SDS011;5186;59.472;18.048;2023-12-29T06:02:57;0.30;;;0.30;;
10281;SDS011;5186;59.472;18.048;2023-12-29T06:05:23;0.47;;;0.40;;
10281;SDS011;5186;59.472;18.048;2023-12-29T06:07:48;0.20;;;0.20;;
10281;SDS011;5186;59.472;18.048;2023-12-29T06:10:14;0.10;;;0.10;;
10281;SDS011;5186;59.472;18.048;2023-12-29T06:12:40;0.23;;;0.23;;
10281;SDS011;5186;59.472;18.048;2023-12-29T06:15:05;0.10;;;0.10;;
10281;SDS011;5186;59.472;18.048;2023-12-29T06:17:31;0.30;;;0.20;;
10281;SDS011;5186;59.472;18.048;2023-12-29T06:19:57;0.63;;;0.30;;
10281;SDS011;5186;59.472;18.048;2023-12-29T06:22:23;1.07;;;0.40;;
10281;SDS011;5186;59.472;18.048;2023-12-29T06:24:48;0.63;;;0.30;;
10281;SDS011;5186;59.472;18.048;2023-12-29T06:27:15;0.30;;;0.20;;
10281;SDS011;5186;59.472;18.048;2023-12-29T06:29:41;0.10;;;0.10;;
10281;SDS011;5186;59.472;18.048;2023-12-29T06:32:07;0.23;;;0.23;;
10281;SDS011;5186;59.472;18.048;2023-12-29T06:34:33;0.97;;;0.30;;
10281;SDS011;5186;59.472;18.048;2023-12-29T06:36:59;0.37;;;0.37;;
10281;SDS011;5186;59.472;18.048;2023-12-29T06:39:25;0.97;;;0.40;;
10281;SDS011;5186;59.472;18.048;2023-12-29T06:41:51;0.40;;;0.40;;
10281;SDS011;5186;59.472;18.048;2023-12-29T06:44:16;0.60;;;0.30;;
10281;SDS011;5186;59.472;18.048;2023-12-29T06:46:42;0.30;;;0.30;;
10281;SDS011;5186;59.472;18.048;2023-12-29T06:49:08;0.40;;;0.30;;
10281;SDS011;5186;59.472;18.048;2023-12-29T06:51:34;1.17;;;0.20;;
10281;SDS011;5186;59.472;18.048;2023-12-29T06:54:00;2.07;;;0.30;;
10281;SDS011;5186;59.472;18.048;2023-12-29T06:56:26;1.80;;;0.40;;
10281;SDS011;5186;59.472;18.048;2023-12-29T06:58:52;0.47;;;0.33;;
10281;SDS011;5186;59.472;18.048;2023-12-29T07:01:18;0.50;;;0.50;;
10281;SDS011;5186;59.472;18.048;2023-12-29T07:03:43;1.43;;;0.40;;
10281;SDS011;5186;59.472;18.048;2023-12-29T07:06:09;1.10;;;0.50;;
10281;SDS011;5186;59.472;18.048;2023-12-29T07:08:35;0.60;;;0.40;;
10281;SDS011;5186;59.472;18.048;2023-12-29T07:11:01;0.50;;;0.50;;
10281;SDS011;5186;59.472;18.048;2023-12-29T07:13:26;0.70;;;0.43;;
10281;SDS011;5186;59.472;18.048;2023-12-29T07:15:52;1.63;;;0.60;;
10281;SDS011;5186;59.472;18.048;2023-12-29T07:18:18;0.67;;;0.57;;
10281;SDS011;5186;59.472;18.048;2023-12-29T07:20:43;2.07;;;0.47;;
10281;SDS011;5186;59.472;18.048;2023-12-29T07:23:09;1.23;;;0.40;;
10281;SDS011;5186;59.472;18.048;2023-12-29T07:25:34;0.60;;;0.53;;
10281;SDS011;5186;59.472;18.048;2023-12-29T07:28:00;1.77;;;1.20;;
10281;SDS011;5186;59.472;18.048;2023-12-29T07:30:26;1.70;;;1.47;;
10281;SDS011;5186;59.472;18.048;2023-12-29T07:32:51;1.90;;;0.80;;
10281;SDS011;5186;59.472;18.048;2023-12-29T07:35:17;2.30;;;0.90;;
10281;SDS011;5186;59.472;18.048;2023-12-29T07:37:44;0.60;;;0.60;;
10281;SDS011;5186;59.472;18.048;2023-12-29T07:40:10;2.43;;;0.97;;
10281;SDS011;5186;59.472;18.048;2023-12-29T07:42:37;0.70;;;0.60;;
10281;SDS011;5186;59.472;18.048;2023-12-29T07:45:04;1.87;;;0.80;;
10281;SDS011;5186;59.472;18.048;2023-12-29T07:47:31;0.80;;;0.80;;
10281;SDS011;5186;59.472;18.048;2023-12-29T07:49:56;1.60;;;0.70;;
10281;SDS011;5186;59.472;18.048;2023-12-29T07:52:22;1.23;;;0.80;;
10281;SDS011;5186;59.472;18.048;2023-12-29T07:54:48;0.83;;;0.70;;
10281;SDS011;5186;59.472;18.048;2023-12-29T07:57:14;0.70;;;0.70;;
10281;SDS011;5186;59.472;18.048;2023-12-29T07:59:39;3.60;;;1.17;;
10281;SDS011;5186;59.472;18.048;2023-12-29T08:02:05;1.80;;;1.20;;
10281;SDS011;5186;59.472;18.048;2023-12-29T08:04:31;2.70;;;1.30;;
10281;SDS011;5186;59.472;18.048;2023-12-29T08:06:57;1.90;;;1.20;;
10281;SDS011;5186;59.472;18.048;2023-12-29T08:09:23;3.37;;;1.37;;
10281;SDS011;5186;59.472;18.048;2023-12-29T08:11:48;3.30;;;1.80;;
10281;SDS011;5186;59.472;18.048;2023-12-29T08:14:15;2.20;;;1.50;;
10281;SDS011;5186;59.472;18.048;2023-12-29T08:16:40;2.67;;;1.80;;
10281;SDS011;5186;59.472;18.048;2023-12-29T08:19:06;3.37;;;1.80;;
10281;SDS011;5186;59.472;18.048;2023-12-29T08:21:32;2.33;;;1.80;;
10281;SDS011;5186;59.472;18.048;2023-12-29T08:23:58;2.07;;;1.70;;
10281;SDS011;5186;59.472;18.048;2023-12-29T08:26:23;2.97;;;2.30;;
10281;SDS011;5186;59.472;18.048;2023-12-29T08:28:49;3.63;;;2.37;;
10281;SDS011;5186;59.472;18.048;2023-12-29T08:31:15;2.30;;;1.60;;
10281;SDS011;5186;59.472;18.048;2023-12-29T08:33:41;3.77;;;2.07;;
10281;SDS011;5186;59.472;18.048;2023-12-29T08:36:07;3.00;;;2.07;;
10281;SDS011;5186;59.472;18.048;2023-12-29T08:38:32;3.40;;;1.80;;
10281;SDS011;5186;59.472;18.048;2023-12-29T08:40:59;2.70;;;1.83;;
10281;SDS011;5186;59.472;18.048;2023-12-29T08:43:25;2.87;;;1.77;;
10281;SDS011;5186;59.472;18.048;2023-12-29T08:45:51;2.63;;;1.80;;
10281;SDS011;5186;59.472;18.048;2023-12-29T08:48:17;2.90;;;1.93;;
10281;SDS011;5186;59.472;18.048;2023-12-29T08:50:42;5.23;;;2.17;;
10281;SDS011;5186;59.472;18.048;2023-12-29T08:53:09;4.80;;;2.40;;
10281;SDS011;5186;59.472;18.048;2023-12-29T08:55:34;4.40;;;2.37;;
10281;SDS011;5186;59.472;18.048;2023-12-29T08:58:00;8.80;;;2.87;;
10281;SDS011;5186;59.472;18.048;2023-12-29T09:00:26;5.87;;;2.60;;
10281;SDS011;5186;59.472;18.048;2023-12-29T09:02:52;5.20;;;2.73;;
10281;SDS011;5186;59.472;18.048;2023-12-29T09:05:17;7.23;;;2.90;;
10281;SDS011;5186;59.472;18.048;2023-12-29T09:07:43;13.37;;;7.40;;
10281;SDS011;5186;59.472;18.048;2023-12-29T09:10:09;14.67;;;5.63;;
10281;SDS011;5186;59.472;18.048;2023-12-29T09:12:37;7.67;;;4.07;;
10281;SDS011;5186;59.472;18.048;2023-12-29T09:15:04;8.70;;;4.23;;
10281;SDS011;5186;59.472;18.048;2023-12-29T09:17:30;8.73;;;3.80;;
10281;SDS011;5186;59.472;18.048;2023-12-29T09:19:55;8.10;;;3.90;;
10281;SDS011;5186;59.472;18.048;2023-12-29T09:22:21;7.03;;;2.93;;
10281;SDS011;5186;59.472;18.048;2023-12-29T09:24:47;9.67;;;3.90;;
10281;SDS011;5186;59.472;18.048;2023-12-29T09:27:12;6.57;;;3.47;;
10281;SDS011;5186;59.472;18.048;2023-12-29T09:29:38;10.17;;;2.50;;
10281;SDS011;5186;59.472;18.048;2023-12-29T09:32:05;6.03;;;2.73;;
10281;SDS011;5186;59.472;18.048;2023-12-29T09:34:31;7.83;;;2.30;;
10281;SDS011;5186;59.472;18.048;2023-12-29T09:36:57;4.47;;;2.07;;
10281;SDS011;5186;59.472;18.048;2023-12-29T09:39:22;5.30;;;2.03;;
10281;SDS011;5186;59.472;18.048;2023-12-29T09:41:50;5.13;;;2.10;;
10281;SDS011;5186;59.472;18.048;2023-12-29T09:44:17;6.30;;;1.77;;
10281;SDS011;5186;59.472;18.048;2023-12-29T09:46:48;6.63;;;2.20;;
10281;SDS011;5186;59.472;18.048;2023-12-29T09:49:16;9.13;;;2.30;;
10281;SDS011;5186;59.472;18.048;2023-12-29T09:51:44;4.63;;;2.23;;
10281;SDS011;5186;59.472;18.048;2023-12-29T09:54:10;5.40;;;2.13;;
10281;SDS011;5186;59.472;18.048;2023-12-29T09:56:37;5.53;;;2.40;;
10281;SDS011;5186;59.472;18.048;2023-12-29T09:59:03;6.07;;;2.00;;
10281;SDS011;5186;59.472;18.048;2023-12-29T10:01:29;4.87;;;1.97;;
10281;SDS011;5186;59.472;18.048;2023-12-29T10:03:56;6.40;;;2.73;;
10281;SDS011;5186;59.472;18.048;2023-12-29T10:06:25;4.10;;;2.13;;
10281;SDS011;5186;59.472;18.048;2023-12-29T10:08:51;8.20;;;2.43;;
10281;SDS011;5186;59.472;18.048;2023-12-29T10:11:19;6.57;;;1.70;;
10281;SDS011;5186;59.472;18.048;2023-12-29T10:13:50;5.53;;;1.53;;
10281;SDS011;5186;59.472;18.048;2023-12-29T10:21:33;6.37;;;1.50;;
10281;SDS011;5186;59.472;18.048;2023-12-29T10:26:45;5.47;;;1.60;;
10281;SDS011;5186;59.472;18.048;2023-12-29T10:29:12;5.70;;;2.00;;
10281;SDS011;5186;59.472;18.048;2023-12-29T10:31:37;4.57;;;1.57;;
10281;SDS011;5186;59.472;18.048;2023-12-29T10:36:55;5.67;;;1.60;;
10281;SDS011;5186;59.472;18.048;2023-12-29T10:39:21;6.53;;;1.80;;
10281;SDS011;5186;59.472;18.048;2023-12-29T10:41:47;5.40;;;1.80;;
10281;SDS011;5186;59.472;18.048;2023-12-29T10:44:13;6.83;;;1.50;;
10281;SDS011;5186;59.472;18.048;2023-12-29T10:46:38;4.03;;;1.50;;
10281;SDS011;5186;59.472;18.048;2023-12-29T10:49:07;2.67;;;1.33;;
10281;SDS011;5186;59.472;18.048;2023-12-29T10:51:37;3.40;;;1.40;;
10281;SDS011;5186;59.472;18.048;2023-12-29T10:54:03;5.57;;;1.60;;
10281;SDS011;5186;59.472;18.048;2023-12-29T10:56:30;2.13;;;1.20;;
10281;SDS011;5186;59.472;18.048;2023-12-29T11:01:25;5.00;;;1.47;;
10281;SDS011;5186;59.472;18.048;2023-12-29T11:04:01;3.80;;;1.20;;
10281;SDS011;5186;59.472;18.048;2023-12-29T11:06:28;3.83;;;1.23;;
10281;SDS011;5186;59.472;18.048;2023-12-29T11:08:55;5.00;;;1.40;;
10281;SDS011;5186;59.472;18.048;2023-12-29T11:11:21;3.97;;;1.40;;
10281;SDS011;5186;59.472;18.048;2023-12-29T11:13:48;5.37;;;1.60;;
10281;SDS011;5186;59.472;18.048;2023-12-29T11:16:14;4.73;;;1.40;;
10281;SDS011;5186;59.472;18.048;2023-12-29T11:18:43;4.60;;;1.20;;
10281;SDS011;5186;59.472;18.048;2023-12-29T11:21:12;2.27;;;1.30;;
10281;SDS011;5186;59.472;18.048;2023-12-29T11:23:38;4.57;;;1.40;;
10281;SDS011;5186;59.472;18.048;2023-12-29T11:26:03;6.67;;;1.60;;
10281;SDS011;5186;59.472;18.048;2023-12-29T11:28:29;4.57;;;1.50;;
10281;SDS011;5186;59.472;18.048;2023-12-29T11:30:55;2.63;;;1.50;;
10281;SDS011;5186;59.472;18.048;2023-12-29T11:33:23;5.83;;;1.77;;
10281;SDS011;5186;59.472;18.048;2023-12-29T11:35:57;6.40;;;1.73;;
10281;SDS011;5186;59.472;18.048;2023-12-29T11:38:47;3.77;;;1.33;;
10281;SDS011;5186;59.472;18.048;2023-12-29T11:43:43;12.37;;;2.03;;
10281;SDS011;5186;59.472;18.048;2023-12-29T11:46:32;10.97;;;2.13;;
10281;SDS011;5186;59.472;18.048;2023-12-29T11:48:58;11.20;;;2.57;;
10281;SDS011;5186;59.472;18.048;2023-12-29T11:51:32;9.63;;;2.63;;
10281;SDS011;5186;59.472;18.048;2023-12-29T11:54:03;9.70;;;2.07;;
10281;SDS011;5186;59.472;18.048;2023-12-29T11:56:40;8.57;;;2.87;;
10281;SDS011;5186;59.472;18.048;2023-12-29T12:01:51;4.67;;;2.43;;
10281;SDS011;5186;59.472;18.048;2023-12-29T12:12:45;6.37;;;2.63;;
10281;SDS011;5186;59.472;18.048;2023-12-29T12:17:51;6.90;;;2.60;;
10281;SDS011;5186;59.472;18.048;2023-12-29T12:20:17;10.13;;;3.20;;
10281;SDS011;5186;59.472;18.048;2023-12-29T12:22:43;11.50;;;3.50;;
10281;SDS011;5186;59.472;18.048;2023-12-29T12:25:11;8.97;;;3.53;;
10281;SDS011;5186;59.472;18.048;2023-12-29T12:27:37;6.80;;;2.83;;
10281;SDS011;5186;59.472;18.048;2023-12-29T12:30:04;14.73;;;3.30;;
10281;SDS011;5186;59.472;18.048;2023-12-29T12:32:30;9.93;;;3.07;;
10281;SDS011;5186;59.472;18.048;2023-12-29T12:34:57;15.40;;;3.30;;
10281;SDS011;5186;59.472;18.048;2023-12-29T12:37:23;13.47;;;4.37;;
10281;SDS011;5186;59.472;18.048;2023-12-29T12:39:53;6.03;;;2.93;;
10281;SDS011;5186;59.472;18.048;2023-12-29T12:42:20;10.03;;;3.10;;
10281;SDS011;5186;59.472;18.048;2023-12-29T12:44:50;15.77;;;3.13;;
10281;SDS011;5186;59.472;18.048;2023-12-29T12:47:25;13.30;;;3.17;;
10281;SDS011;5186;59.472;18.048;2023-12-29T12:49:57;10.27;;;2.77;;
10281;SDS011;5186;59.472;18.048;2023-12-29T12:52:24;10.90;;;3.13;;
10281;SDS011;5186;59.472;18.048;2023-12-29T12:54:50;7.47;;;3.20;;
10281;SDS011;5186;59.472;18.048;2023-12-29T12:57:20;8.90;;;3.20;;
10281;SDS011;5186;59.472;18.048;2023-12-29T12:59:46;10.27;;;3.17;;
10281;SDS011;5186;59.472;18.048;2023-12-29T13:02:13;7.53;;;3.13;;
10281;SDS011;5186;59.472;18.048;2023-12-29T13:04:40;12.80;;;3.50;;
10281;SDS011;5186;59.472;18.048;2023-12-29T13:07:07;5.47;;;2.87;;
10281;SDS011;5186;59.472;18.048;2023-12-29T13:09:34;7.30;;;2.63;;
10281;SDS011;5186;59.472;18.048;2023-12-29T13:12:08;9.73;;;3.10;;
10281;SDS011;5186;59.472;18.048;2023-12-29T13:14:38;13.13;;;3.97;;
10281;SDS011;5186;59.472;18.048;2023-12-29T13:17:05;10.63;;;3.80;;
10281;SDS011;5186;59.472;18.048;2023-12-29T13:19:38;8.53;;;3.20;;
10281;SDS011;5186;59.472;18.048;2023-12-29T13:22:07;4.57;;;3.00;;
10281;SDS011;5186;59.472;18.048;2023-12-29T13:24:34;5.30;;;2.73;;
10281;SDS011;5186;59.472;18.048;2023-12-29T13:27:06;5.60;;;2.70;;
10281;SDS011;5186;59.472;18.048;2023-12-29T13:29:33;5.27;;;2.37;;
10281;SDS011;5186;59.472;18.048;2023-12-29T13:32:22;4.83;;;2.77;;
10281;SDS011;5186;59.472;18.048;2023-12-29T13:35:04;15.70;;;3.00;;
10281;SDS011;5186;59.472;18.048;2023-12-29T13:37:35;8.37;;;2.80;;
10281;SDS011;5186;59.472;18.048;2023-12-29T13:43:01;12.00;;;2.77;;
10281;SDS011;5186;59.472;18.048;2023-12-29T13:45:28;5.23;;;2.50;;
10281;SDS011;5186;59.472;18.048;2023-12-29T13:47:55;6.93;;;3.07;;
10281;SDS011;5186;59.472;18.048;2023-12-29T13:50:22;6.37;;;2.90;;
10281;SDS011;5186;59.472;18.048;2023-12-29T13:52:49;6.70;;;3.00;;
10281;SDS011;5186;59.472;18.048;2023-12-29T13:55:21;7.43;;;2.67;;
10281;SDS011;5186;59.472;18.048;2023-12-29T13:57:48;10.83;;;3.13;;
10281;SDS011;5186;59.472;18.048;2023-12-29T14:02:43;7.03;;;2.90;;
10281;SDS011;5186;59.472;18.048;2023-12-29T14:07:37;4.70;;;2.80;;
10281;SDS011;5186;59.472;18.048;2023-12-29T14:10:17;13.63;;;3.50;;
10281;SDS011;5186;59.472;18.048;2023-12-29T14:12:43;7.50;;;3.33;;
10281;SDS011;5186;59.472;18.048;2023-12-29T14:15:09;10.60;;;3.37;;
10281;SDS011;5186;59.472;18.048;2023-12-29T14:17:35;9.50;;;3.20;;
10281;SDS011;5186;59.472;18.048;2023-12-29T14:20:03;8.43;;;3.47;;
10281;SDS011;5186;59.472;18.048;2023-12-29T14:22:31;8.63;;;3.13;;
10281;SDS011;5186;59.472;18.048;2023-12-29T14:25:03;16.83;;;3.80;;
10281;SDS011;5186;59.472;18.048;2023-12-29T14:27:30;21.17;;;4.40;;
10281;SDS011;5186;59.472;18.048;2023-12-29T14:29:56;18.20;;;4.70;;
10281;SDS011;5186;59.472;18.048;2023-12-29T14:32:23;11.87;;;3.90;;
10281;SDS011;5186;59.472;18.048;2023-12-29T14:34:57;16.75;;;4.38;;
10281;SDS011;5186;59.472;18.048;2023-12-29T14:37:32;16.34;;;4.30;;
10281;SDS011;5186;59.472;18.048;2023-12-29T14:39:58;23.07;;;4.27;;
10281;SDS011;5186;59.472;18.048;2023-12-29T14:42:23;32.57;;;4.87;;
10281;SDS011;5186;59.472;18.048;2023-12-29T14:44:49;18.37;;;4.27;;
10281;SDS011;5186;59.472;18.048;2023-12-29T14:47:15;17.17;;;4.40;;
10281;SDS011;5186;59.472;18.048;2023-12-29T14:49:41;13.70;;;3.87;;
10281;SDS011;5186;59.472;18.048;2023-12-29T14:52:07;12.27;;;4.00;;
10281;SDS011;5186;59.472;18.048;2023-12-29T14:54:33;27.50;;;5.60;;
10281;SDS011;5186;59.472;18.048;2023-12-29T14:56:58;11.00;;;4.40;;
10281;SDS011;5186;59.472;18.048;2023-12-29T14:59:25;18.67;;;4.90;;
10281;SDS011;5186;59.472;18.048;2023-12-29T15:01:51;19.83;;;4.90;;
10281;SDS011;5186;59.472;18.048;2023-12-29T15:04:17;13.57;;;4.20;;
10281;SDS011;5186;59.472;18.048;2023-12-29T15:06:42;19.83;;;4.93;;
10281;SDS011;5186;59.472;18.048;2023-12-29T15:09:08;13.10;;;4.40;;
10281;SDS011;5186;59.472;18.048;2023-12-29T15:11:35;16.77;;;5.27;;
10281;SDS011;5186;59.472;18.048;2023-12-29T15:14:01;13.13;;;4.93;;
10281;SDS011;5186;59.472;18.048;2023-12-29T15:16:27;14.47;;;4.73;;
10281;SDS011;5186;59.472;18.048;2023-12-29T15:18:53;14.27;;;5.33;;
10281;SDS011;5186;59.472;18.048;2023-12-29T15:21:18;17.63;;;5.97;;